Time;durP1;ratioP1;P1;durP2;ratioP2;P2;SDS_P1;SDS_P2;PMS_P1;PMS_P2;Temp;Humidity;BMP_temperature;BMP_pressure;BME280_temperature;BME280_humidity;BME280_pressure;Samples;Min_cycle;Max_cycle;Signal;HPM_P1;HPM_P2
2022/07/31 00:00:51;;;;;;;2.75;2.10;;;19.60;1.00;;;;;;5089924;27;34103;-77
2022/07/31 00:03:17;;;;;;;2.75;1.90;;;19.50;1.00;;;;;;5090647;28;34086;-77
2022/07/31 00:05:42;;;;;;;1.75;1.65;;;19.50;1.00;;;;;;5021661;27;34533;-77
2022/07/31 00:08:08;;;;;;;2.83;1.80;;;19.50;1.00;;;;;;5106817;27;34125;-76
2022/07/31 00:10:34;;;;;;;2.10;1.90;;;19.50;1.00;;;;;;5021711;27;34053;-77
2022/07/31 00:13:00;;;;;;;1.88;1.70;;;19.50;1.00;;;;;;5021475;27;34264;-77
2022/07/31 00:15:26;;;;;;;2.65;1.75;;;19.50;1.00;;;;;;5090231;28;35741;-76
2022/07/31 00:17:52;;;;;;;1.88;1.67;;;19.50;1.00;;;;;;5107178;27;34141;-77
2022/07/31 00:20:18;;;;;;;1.90;1.80;;;19.50;1.00;;;;;;5040701;28;34266;-76
2022/07/31 00:22:46;;;;;;;2.90;1.90;;;19.50;1.00;;;;;;5109969;27;34267;-76
2022/07/31 00:25:13;;;;;;;2.00;1.90;;;19.50;1.00;;;;;;5025884;28;34349;-76
2022/07/31 00:27:40;;;;;;;5.97;1.67;;;19.50;1.00;;;;;;5089912;27;34211;-76
2022/07/31 00:30:07;;;;;;;2.08;1.88;;;19.50;1.00;;;;;;5083813;28;34275;-77
2022/07/31 00:32:33;;;;;;;2.35;1.63;;;19.50;1.00;;;;;;5082265;27;34173;-76
2022/07/31 00:34:59;;;;;;;2.05;1.70;;;19.40;1.00;;;;;;5092104;28;35165;-76
2022/07/31 00:37:25;;;;;;;2.10;1.90;;;19.40;1.00;;;;;;5144146;27;34140;-76
2022/07/31 00:39:51;;;;;;;4.32;2.10;;;19.40;1.00;;;;;;5127100;27;34084;-77
2022/07/31 00:42:18;;;;;;;2.17;1.63;;;19.30;1.00;;;;;;5123715;27;34098;-77
2022/07/31 00:44:45;;;;;;;2.28;1.65;;;19.30;1.10;;;;;;5124363;27;35987;-76
2022/07/31 00:47:11;;;;;;;2.03;1.75;;;19.30;1.00;;;;;;5117813;27;35320;-76
2022/07/31 00:49:37;;;;;;;2.63;2.03;;;19.20;1.00;;;;;;5127183;27;34412;-77
2022/07/31 00:52:04;;;;;;;6.38;2.00;;;19.20;1.00;;;;;;5158624;27;34622;-76
2022/07/31 00:54:30;;;;;;;2.00;1.88;;;19.20;1.10;;;;;;5123055;27;35579;-76
2022/07/31 00:56:56;;;;;;;2.42;1.70;;;19.20;1.20;;;;;;5121327;27;34354;-76
2022/07/31 00:59:22;;;;;;;2.13;1.60;;;19.20;1.20;;;;;;5123562;27;34261;-76
2022/07/31 01:01:48;;;;;;;1.63;1.50;;;19.20;1.30;;;;;;5124485;27;34064;-76
2022/07/31 01:04:17;;;;;;;1.85;1.75;;;19.20;1.30;;;;;;5123239;27;35891;-76
2022/07/31 01:06:44;;;;;;;2.92;1.70;;;19.20;1.40;;;;;;5117283;27;34305;-76
2022/07/31 01:09:13;;;;;;;4.68;1.85;;;19.10;1.50;;;;;;5102988;27;34198;-76
2022/07/31 01:11:56;;;;;;;2.75;1.70;;;19.10;1.50;;;;;;5103553;28;34409;-76
2022/07/31 01:14:26;;;;;;;1.83;1.73;;;19.10;3.60;;;;;;5103138;28;35767;-76
2022/07/31 01:16:54;;;;;;;4.45;2.00;;;19.10;1.80;;;;;;5108146;27;34186;-76
2022/07/31 01:19:26;;;;;;;2.05;1.85;;;19.00;1.70;;;;;;5102595;28;34304;-77
2022/07/31 01:22:29;;;;;;;1.70;1.60;;;19.00;2.40;;;;;;5104572;28;34256;-77
2022/07/31 01:25:20;;;;;;;1.85;1.75;;;19.00;5.60;;;;;;5093597;27;34180;-76
2022/07/31 01:28:18;;;;;;;1.90;1.73;;;19.00;4.30;;;;;;5108503;27;34177;-77
2022/07/31 01:30:50;;;;;;;2.95;1.88;;;19.00;4.60;;;;;;5154168;27;34143;-76
2022/07/31 01:33:21;;;;;;;3.75;2.38;;;18.90;2.50;;;;;;5103697;28;34150;-77
2022/07/31 01:35:54;;;;;;;2.67;2.00;;;18.90;2.50;;;;;;5146099;27;36388;-76
2022/07/31 01:38:28;;;;;;;1.90;1.80;;;18.80;2.90;;;;;;5140308;27;34005;-76
2022/07/31 01:40:58;;;;;;;3.65;1.95;;;18.70;2.60;;;;;;5118674;27;34257;-77
2022/07/31 01:43:31;;;;;;;2.42;1.77;;;18.70;2.90;;;;;;5143968;27;34626;-76
2022/07/31 01:45:59;;;;;;;5.50;2.20;;;18.70;3.10;;;;;;5108937;27;36237;-77
2022/07/31 01:48:26;;;;;;;2.08;1.88;;;18.60;2.60;;;;;;5141195;27;34190;-76
2022/07/31 01:50:55;;;;;;;2.35;1.90;;;18.50;2.60;;;;;;5106768;27;34030;-76
2022/07/31 01:53:25;;;;;;;2.95;2.08;;;18.50;3.30;;;;;;5051362;27;34081;-77
2022/07/31 01:55:54;;;;;;;3.25;1.75;;;18.50;3.30;;;;;;5140167;27;35709;-76
2022/07/31 01:58:21;;;;;;;2.88;1.70;;;18.40;3.10;;;;;;5129293;27;34019;-77
2022/07/31 02:00:49;;;;;;;1.88;1.70;;;18.40;3.10;;;;;;5125600;27;34153;-77
2022/07/31 02:03:16;;;;;;;1.92;1.73;;;18.30;3.30;;;;;;5143594;27;34250;-76
2022/07/31 02:05:43;;;;;;;2.13;2.03;;;18.30;3.30;;;;;;5106202;27;35820;-76
2022/07/31 02:08:13;;;;;;;2.33;2.08;;;18.30;3.50;;;;;;5087996;28;34314;-76
2022/07/31 02:10:41;;;;;;;2.30;2.03;;;18.20;3.70;;;;;;5096501;27;34238;-77
2022/07/31 02:13:09;;;;;;;2.95;1.92;;;18.20;3.60;;;;;;5095654;27;34069;-76
2022/07/31 02:15:36;;;;;;;2.08;1.80;;;18.10;3.70;;;;;;5057156;27;35748;-76
2022/07/31 02:18:03;;;;;;;1.95;1.77;;;18.10;3.80;;;;;;5097801;27;34183;-76
2022/07/31 02:20:30;;;;;;;3.45;1.70;;;18.10;3.80;;;;;;5108332;27;34235;-76
2022/07/31 02:22:57;;;;;;;2.70;2.15;;;18.10;4.00;;;;;;5108315;27;34194;-77
2022/07/31 02:25:24;;;;;;;2.25;1.90;;;18.00;4.20;;;;;;5143194;27;36751;-76
2022/07/31 02:27:53;;;;;;;2.45;1.80;;;18.00;4.20;;;;;;5135925;27;34090;-76
2022/07/31 02:30:20;;;;;;;2.53;2.13;;;17.90;4.10;;;;;;5105025;27;34495;-76
2022/07/31 02:32:47;;;;;;;2.10;1.90;;;17.90;4.20;;;;;;5105406;27;34181;-77
2022/07/31 02:35:16;;;;;;;2.85;2.00;;;17.80;4.20;;;;;;5018734;28;34422;-76
2022/07/31 02:37:44;;;;;;;2.00;1.85;;;17.90;4.60;;;;;;5027388;28;34303;-76
2022/07/31 02:40:12;;;;;;;2.20;2.00;;;17.80;4.50;;;;;;5035087;28;34182;-76
2022/07/31 02:42:40;;;;;;;3.15;1.92;;;17.80;4.90;;;;;;5049214;27;34103;-77
2022/07/31 02:45:09;;;;;;;2.10;1.90;;;17.80;4.70;;;;;;5110745;27;36309;-76
2022/07/31 02:47:36;;;;;;;2.00;1.90;;;17.70;5.20;;;;;;5041136;28;34103;-76
2022/07/31 02:50:04;;;;;;;2.97;2.20;;;17.60;4.80;;;;;;5087730;27;34260;-77
2022/07/31 02:52:30;;;;;;;2.03;1.83;;;17.60;4.90;;;;;;5111503;27;34629;-76
2022/07/31 02:54:57;;;;;;;2.15;1.90;;;17.50;4.90;;;;;;5107573;27;36576;-77
2022/07/31 02:57:23;;;;;;;1.95;1.80;;;17.50;5.20;;;;;;5035921;28;34153;-76
2022/07/31 02:59:49;;;;;;;5.15;2.17;;;17.50;5.20;;;;;;5137016;27;34196;-77
2022/07/31 03:02:15;;;;;;;2.05;1.85;;;17.40;5.20;;;;;;5097457;27;34160;-76
2022/07/31 03:04:41;;;;;;;2.00;1.90;;;17.40;5.30;;;;;;5111102;27;36720;-76
2022/07/31 03:07:08;;;;;;;3.13;2.10;;;17.30;5.30;;;;;;5111638;27;34200;-77
2022/07/31 03:09:35;;;;;;;2.10;1.90;;;17.40;5.70;;;;;;5111393;27;34128;-77
2022/07/31 03:12:01;;;;;;;2.35;2.13;;;17.40;5.50;;;;;;5111297;27;34514;-76
2022/07/31 03:14:29;;;;;;;2.42;1.83;;;17.40;5.60;;;;;;5111243;27;35848;-76
2022/07/31 03:16:57;;;;;;;2.90;2.28;;;17.40;5.60;;;;;;5090518;27;34340;-76
2022/07/31 03:19:24;;;;;;;2.00;1.80;;;17.40;5.70;;;;;;5102541;27;34028;-76
2022/07/31 03:21:50;;;;;;;2.10;1.90;;;17.40;5.70;;;;;;5145787;27;34187;-76
2022/07/31 03:24:17;;;;;;;2.75;1.85;;;17.40;6.30;;;;;;5127823;27;35509;-77
2022/07/31 03:26:43;;;;;;;3.03;2.05;;;17.40;5.90;;;;;;5091118;27;34258;-76
2022/07/31 03:29:09;;;;;;;2.22;2.00;;;17.40;5.90;;;;;;5107734;27;34256;-77
2022/07/31 03:31:35;;;;;;;2.20;2.03;;;17.40;6.00;;;;;;5100893;27;34363;-76
2022/07/31 03:34:01;;;;;;;2.78;2.00;;;17.40;6.00;;;;;;5041650;28;35011;-76
2022/07/31 03:36:28;;;;;;;2.10;1.90;;;17.40;6.00;;;;;;5110006;27;34086;-77
2022/07/31 03:38:54;;;;;;;2.30;2.10;;;17.40;6.00;;;;;;5093584;27;34195;-76
2022/07/31 03:41:20;;;;;;;2.92;1.98;;;17.40;6.00;;;;;;5107166;27;34165;-77
2022/07/31 03:43:46;;;;;;;3.08;2.10;;;17.40;6.10;;;;;;5090960;27;35651;-76
2022/07/31 03:46:15;;;;;;;2.30;2.10;;;17.30;6.30;;;;;;5037593;28;34534;-77
2022/07/31 03:48:41;;;;;;;2.15;1.85;;;17.30;6.60;;;;;;5093740;27;34099;-76
2022/07/31 03:51:08;;;;;;;2.00;1.90;;;17.20;6.30;;;;;;5042158;28;34255;-77
2022/07/31 03:53:34;;;;;;;2.00;1.80;;;17.30;6.40;;;;;;5093655;27;36264;-76
2022/07/31 03:56:04;;;;;;;3.45;2.03;;;17.30;6.50;;;;;;5110223;27;34291;-76
2022/07/31 03:58:30;;;;;;;2.80;2.10;;;17.30;6.70;;;;;;5110483;27;34138;-76
2022/07/31 04:00:57;;;;;;;5.18;2.55;;;17.30;6.40;;;;;;5110704;27;34118;-76
2022/07/31 04:03:30;;;;;;;7.10;2.20;;;17.30;6.50;;;;;;5095952;27;35796;-76
2022/07/31 04:05:55;;;;;;;5.60;2.20;;;17.30;7.70;;;;;;5099209;27;34267;-76
2022/07/31 04:08:21;;;;;;;5.10;1.98;;;17.20;6.40;;;;;;5093199;27;34108;-76
2022/07/31 04:10:48;;;;;;;4.28;2.40;;;17.20;6.50;;;;;;5103992;27;34092;-76
2022/07/31 04:13:14;;;;;;;3.45;1.98;;;17.20;6.50;;;;;;5103398;27;36493;-77
2022/07/31 04:15:39;;;;;;;5.53;2.38;;;17.20;6.60;;;;;;5126444;27;34225;-76
2022/07/31 04:18:05;;;;;;;7.60;2.10;;;17.20;6.70;;;;;;5075320;28;34296;-76
2022/07/31 04:20:31;;;;;;;3.05;2.25;;;17.20;6.80;;;;;;5041599;28;34137;-76
2022/07/31 04:22:57;;;;;;;6.25;2.50;;;17.20;6.80;;;;;;5093093;28;35730;-76
2022/07/31 04:25:23;;;;;;;3.38;2.35;;;17.20;6.90;;;;;;5104088;27;34247;-76
2022/07/31 04:27:49;;;;;;;3.28;2.38;;;17.20;6.90;;;;;;5110421;27;34236;-76
2022/07/31 04:30:15;;;;;;;2.70;2.20;;;17.20;6.90;;;;;;5109928;27;34442;-77
2022/07/31 04:32:41;;;;;;;2.80;2.20;;;17.30;6.90;;;;;;5109680;27;35760;-76
2022/07/31 04:35:08;;;;;;;2.80;2.30;;;17.30;6.90;;;;;;5138054;27;34445;-77
2022/07/31 04:37:34;;;;;;;2.70;2.28;;;17.30;6.90;;;;;;5127043;27;34136;-76
2022/07/31 04:40:00;;;;;;;4.60;2.35;;;17.30;6.90;;;;;;5062567;27;34451;-76
2022/07/31 04:42:26;;;;;;;2.40;2.15;;;17.30;6.90;;;;;;5005255;28;36413;-76
2022/07/31 04:44:51;;;;;;;2.55;2.20;;;17.40;6.90;;;;;;5040566;28;34490;-76
2022/07/31 04:47:18;;;;;;;2.67;2.17;;;17.40;6.90;;;;;;5036011;28;34537;-76
2022/07/31 04:49:44;;;;;;;3.90;2.40;;;17.30;7.00;;;;;;5040053;28;34857;-76
2022/07/31 04:52:10;;;;;;;2.30;2.00;;;17.40;7.00;;;;;;5109400;27;34418;-76
2022/07/31 04:54:37;;;;;;;2.45;2.00;;;17.40;7.10;;;;;;5109998;27;34244;-76
2022/07/31 04:57:03;;;;;;;2.38;1.95;;;17.40;7.20;;;;;;5089380;28;34034;-77
2022/07/31 04:59:30;;;;;;;2.30;2.10;;;17.50;7.20;;;;;;5041218;28;34066;-77
2022/07/31 05:01:56;;;;;;;2.17;2.00;;;17.50;7.10;;;;;;5109417;27;36674;-77
2022/07/31 05:04:22;;;;;;;3.40;2.40;;;17.60;7.00;;;;;;5109373;27;34242;-77
2022/07/31 05:06:50;;;;;;;3.35;2.15;;;17.70;7.00;;;;;;5109847;27;34548;-76
2022/07/31 05:09:18;;;;;;;2.20;2.00;;;17.70;7.10;;;;;;5109284;27;34118;-77
2022/07/31 05:11:45;;;;;;;3.38;2.25;;;17.70;7.10;;;;;;5088724;28;35506;-77
2022/07/31 05:14:14;;;;;;;3.13;2.15;;;17.80;6.90;;;;;;5106922;27;34216;-76
2022/07/31 05:16:41;;;;;;;2.17;2.00;;;17.90;7.10;;;;;;5106135;27;34239;-76
2022/07/31 05:19:07;;;;;;;3.03;2.25;;;17.90;6.90;;;;;;5123560;27;34402;-76
2022/07/31 05:21:33;;;;;;;1.92;1.83;;;18.00;6.80;;;;;;5129470;27;36717;-77
2022/07/31 05:24:00;;;;;;;2.85;2.22;;;18.10;6.80;;;;;;5105017;27;34300;-77
2022/07/31 05:26:27;;;;;;;5.05;2.00;;;18.40;6.60;;;;;;5142154;27;34124;-77
2022/07/31 05:28:55;;;;;;;3.78;2.22;;;18.60;6.30;;;;;;5117513;27;34217;-76
2022/07/31 05:31:21;;;;;;;2.92;2.10;;;18.80;5.80;;;;;;5113692;27;35447;-76
2022/07/31 05:33:48;;;;;;;2.28;2.08;;;19.00;5.60;;;;;;5108256;27;34020;-76
2022/07/31 05:36:17;;;;;;;2.63;2.10;;;19.10;5.20;;;;;;5034981;28;34160;-77
2022/07/31 05:38:43;;;;;;;5.43;2.22;;;19.20;5.10;;;;;;5092551;27;35141;-77
2022/07/31 05:41:09;;;;;;;2.38;2.17;;;19.30;4.90;;;;;;5091448;27;36597;-76
2022/07/31 05:43:36;;;;;;;2.95;2.63;;;19.30;4.80;;;;;;5040458;27;34210;-76
2022/07/31 05:46:04;;;;;;;4.18;2.30;;;19.40;4.90;;;;;;5093348;27;34091;-76
2022/07/31 05:48:30;;;;;;;2.53;2.28;;;19.50;4.70;;;;;;5138285;27;34088;-76
2022/07/31 05:50:56;;;;;;;3.30;2.20;;;19.60;4.40;;;;;;5142320;27;35663;-76
2022/07/31 05:53:22;;;;;;;3.25;2.25;;;19.80;4.20;;;;;;5143111;27;34341;-76
2022/07/31 05:55:49;;;;;;;4.40;2.20;;;20.10;4.10;;;;;;5135625;27;34124;-77
2022/07/31 05:58:17;;;;;;;3.67;2.17;;;20.20;3.60;;;;;;5140443;27;34124;-77
2022/07/31 06:00:45;;;;;;;2.30;2.10;;;20.40;3.30;;;;;;5108256;27;35476;-77
2022/07/31 06:03:12;;;;;;;2.47;2.15;;;20.60;3.10;;;;;;5143260;27;34187;-78
2022/07/31 06:05:39;;;;;;;4.47;2.10;;;20.70;3.00;;;;;;5108929;27;34442;-77
2022/07/31 06:08:05;;;;;;;2.97;2.25;;;20.80;3.00;;;;;;5108214;27;34585;-77
2022/07/31 06:10:32;;;;;;;3.13;2.40;;;20.80;3.00;;;;;;5102479;27;35535;-76
2022/07/31 06:12:59;;;;;;;2.35;2.15;;;20.90;3.00;;;;;;5140930;27;34237;-77
2022/07/31 06:15:25;;;;;;;2.47;2.25;;;21.00;3.00;;;;;;5084915;27;34277;-76
2022/07/31 06:17:51;;;;;;;10.10;2.33;;;21.00;2.90;;;;;;5110633;27;34340;-77
2022/07/31 06:20:17;;;;;;;1.88;1.77;;;21.10;3.00;;;;;;5098048;27;35778;-77
2022/07/31 06:22:43;;;;;;;2.25;2.00;;;21.10;2.90;;;;;;5126140;27;35794;-77
2022/07/31 06:25:15;;;;;;;4.18;2.20;;;21.20;2.90;;;;;;5087435;28;34518;-77
2022/07/31 06:27:41;;;;;;;2.80;2.17;;;21.30;2.70;;;;;;5110050;27;34126;-76
2022/07/31 06:30:08;;;;;;;3.75;2.33;;;21.30;2.60;;;;;;5037500;28;34447;-77
2022/07/31 06:32:35;;;;;;;2.90;2.15;;;21.30;2.40;;;;;;5098784;27;34364;-77
2022/07/31 06:35:02;;;;;;;3.78;2.08;;;21.40;2.40;;;;;;5080223;27;34437;-76
2022/07/31 06:37:28;;;;;;;2.00;1.90;;;21.50;2.30;;;;;;5128681;27;34476;-76
2022/07/31 06:39:54;;;;;;;2.15;1.95;;;21.50;2.20;;;;;;5127713;27;35641;-76
2022/07/31 06:42:22;;;;;;;2.30;2.08;;;21.60;1.90;;;;;;5038856;28;34427;-77
2022/07/31 06:44:48;;;;;;;2.40;1.85;;;21.60;1.70;;;;;;5091005;27;34388;-76
2022/07/31 06:47:15;;;;;;;2.15;1.88;;;21.70;1.60;;;;;;5128847;27;34212;-77
2022/07/31 06:49:41;;;;;;;2.20;2.00;;;21.80;1.30;;;;;;5077011;27;35897;-76
2022/07/31 06:52:08;;;;;;;3.28;1.92;;;21.80;1.30;;;;;;5093388;27;34158;-76
2022/07/31 06:54:33;;;;;;;2.72;1.98;;;21.80;1.30;;;;;;5110755;27;34261;-76
2022/07/31 06:56:59;;;;;;;2.05;1.92;;;21.90;1.30;;;;;;5110079;27;34502;-76
2022/07/31 06:59:26;;;;;;;1.98;1.88;;;21.90;1.00;;;;;;5127353;27;36625;-76
2022/07/31 07:01:51;;;;;;;2.33;2.05;;;22.00;1.00;;;;;;5100947;27;34364;-76
2022/07/31 07:04:18;;;;;;;2.92;2.20;;;22.00;1.00;;;;;;5106521;27;34656;-76
2022/07/31 07:06:43;;;;;;;2.72;1.90;;;22.00;1.00;;;;;;5090023;27;34331;-76
2022/07/31 07:09:10;;;;;;;7.43;1.80;;;22.10;1.00;;;;;;5124444;27;35702;-76
2022/07/31 07:11:35;;;;;;;2.53;1.85;;;22.30;1.00;;;;;;5120599;27;34436;-77
2022/07/31 07:14:01;;;;;;;1.90;1.80;;;22.50;1.00;;;;;;5077335;28;34885;-77
2022/07/31 07:16:27;;;;;;;2.05;1.75;;;22.70;1.00;;;;;;5102305;27;34700;-76
2022/07/31 07:18:54;;;;;;;4.22;1.80;;;22.80;1.00;;;;;;5022228;28;35113;-77
2022/07/31 07:21:20;;;;;;;13.57;1.90;;;22.90;1.00;;;;;;5033805;28;34201;-76
2022/07/31 07:23:46;;;;;;;5.30;1.85;;;23.00;1.00;;;;;;5072356;28;34121;-77
2022/07/31 07:26:12;;;;;;;2.80;1.75;;;23.10;1.00;;;;;;5100957;27;34219;-76
2022/07/31 07:28:38;;;;;;;9.00;1.80;;;23.20;1.00;;;;;;5144855;27;35875;-76
2022/07/31 07:31:04;;;;;;;2.75;1.48;;;23.30;1.00;;;;;;5110044;27;34318;-76
2022/07/31 07:33:31;;;;;;;1.67;1.58;;;23.40;1.00;;;;;;5040590;28;34720;-77
2022/07/31 07:35:57;;;;;;;4.97;2.38;;;23.50;1.00;;;;;;5040759;28;34557;-76
2022/07/31 07:38:23;;;;;;;1.58;1.48;;;23.60;1.00;;;;;;5111701;27;36519;-77
2022/07/31 07:40:50;;;;;;;1.92;1.70;;;23.80;1.00;;;;;;5034982;28;34248;-76
2022/07/31 07:43:16;;;;;;;3.38;2.00;;;24.00;1.00;;;;;;5034795;28;34574;-75
2022/07/31 07:45:42;;;;;;;2.75;1.60;;;24.20;1.00;;;;;;5027639;28;34447;-77
2022/07/31 07:48:08;;;;;;;5.18;1.65;;;24.50;1.00;;;;;;5118354;27;36742;-77
2022/07/31 07:50:35;;;;;;;1.50;1.40;;;25.00;1.00;;;;;;5090843;27;35442;-77
2022/07/31 07:53:01;;;;;;;3.58;1.70;;;25.50;1.00;;;;;;5030645;28;34239;-77
2022/07/31 07:55:27;;;;;;;2.75;1.60;;;25.80;1.00;;;;;;5021382;28;34382;-76
2022/07/31 07:57:53;;;;;;;1.50;1.40;;;26.10;1.00;;;;;;5130788;27;35761;-76
2022/07/31 08:00:19;;;;;;;2.00;1.50;;;26.50;1.00;;;;;;5030558;27;34098;-78
2022/07/31 08:02:47;;;;;;;2.25;1.48;;;27.10;1.00;;;;;;5104444;27;34244;-78
2022/07/31 08:05:14;;;;;;;2.97;1.40;;;27.30;1.00;;;;;;5090279;28;34113;-77
2022/07/31 08:07:40;;;;;;;2.97;1.50;;;27.50;1.00;;;;;;5021936;28;34973;-77
2022/07/31 08:10:07;;;;;;;4.28;1.58;;;27.60;1.00;;;;;;5051731;27;34268;-77
2022/07/31 08:12:34;;;;;;;1.92;1.45;;;28.00;1.00;;;;;;5133896;27;34384;-78
2022/07/31 08:15:00;;;;;;;1.35;1.25;;;28.20;1.00;;;;;;5115888;27;35279;-77
2022/07/31 08:17:26;;;;;;;13.55;1.83;;;28.70;1.00;;;;;;5031291;27;34569;-77
2022/07/31 08:19:52;;;;;;;3.88;1.45;;;29.00;1.00;;;;;;5111431;27;34024;-77
2022/07/31 08:22:18;;;;;;;2.35;1.10;;;29.10;1.00;;;;;;5112660;27;34449;-77
2022/07/31 08:24:44;;;;;;;1.80;1.40;;;29.30;1.00;;;;;;5139044;27;34563;-77
2022/07/31 08:29:59;;;;;;;3.38;1.20;;;29.70;1.00;;;;;;5044973;28;34200;-79
2022/07/31 08:32:26;;;;;;;2.03;1.38;;;29.60;1.00;;;;;;5107618;27;34281;-76
2022/07/31 08:34:54;;;;;;;1.42;1.10;;;29.90;1.00;;;;;;5095417;27;34107;-78
2022/07/31 08:37:21;;;;;;;5.80;1.27;;;30.20;1.00;;;;;;5110503;27;35742;-77
2022/07/31 08:39:49;;;;;;;1.95;1.45;;;30.60;1.00;;;;;;5105219;27;34399;-77
2022/07/31 08:42:17;;;;;;;2.13;1.10;;;30.80;1.00;;;;;;5107518;27;34241;-78
2022/07/31 08:44:45;;;;;;;1.20;1.10;;;30.90;1.00;;;;;;5105419;27;34259;-77
2022/07/31 08:47:14;;;;;;;1.00;0.88;;;30.70;1.00;;;;;;5103159;27;35483;-80
2022/07/31 08:49:45;;;;;;;1.65;1.10;;;30.80;1.00;;;;;;5125786;27;34218;-78
2022/07/31 08:52:17;;;;;;;2.30;1.33;;;30.90;1.00;;;;;;5121062;27;34351;-79
2022/07/31 08:54:45;;;;;;;2.00;1.20;;;30.90;1.00;;;;;;5136087;27;34363;-79
2022/07/31 08:57:12;;;;;;;0.90;0.90;;;31.00;1.00;;;;;;5038229;28;34761;-78
2022/07/31 08:59:40;;;;;;;2.25;1.73;;;31.20;1.00;;;;;;5133680;27;34530;-77
2022/07/31 09:02:11;;;;;;;1.23;1.13;;;31.50;1.00;;;;;;5091246;27;34245;-78
2022/07/31 09:04:38;;;;;;;1.08;0.98;;;31.50;1.00;;;;;;5106104;27;34508;-79
2022/07/31 09:07:04;;;;;;;1.27;0.98;;;31.60;1.00;;;;;;5147000;27;36699;-77
2022/07/31 09:09:30;;;;;;;1.10;0.82;;;31.60;1.00;;;;;;5131827;27;34762;-77
2022/07/31 09:11:57;;;;;;;1.05;0.95;;;31.60;1.00;;;;;;5142966;27;34198;-80
2022/07/31 09:14:27;;;;;;;0.77;0.77;;;31.70;1.00;;;;;;5105616;27;34286;-78
2022/07/31 09:16:54;;;;;;;0.95;0.77;;;31.70;1.00;;;;;;5135999;27;35651;-76
2022/07/31 09:19:21;;;;;;;1.25;0.93;;;31.60;1.00;;;;;;5116227;27;34340;-78
2022/07/31 09:21:49;;;;;;;0.80;0.80;;;31.70;1.00;;;;;;5140537;27;34254;-80
2022/07/31 09:24:32;;;;;;;2.35;0.80;;;31.60;1.00;;;;;;5140613;27;34429;-81
2022/07/31 09:27:08;;;;;;;1.70;0.85;;;31.50;1.00;;;;;;5127080;27;35924;-77
2022/07/31 09:29:40;;;;;;;1.95;0.90;;;31.50;1.00;;;;;;5110454;27;34399;-80
2022/07/31 09:32:13;;;;;;;2.92;1.20;;;31.30;1.00;;;;;;5086324;27;34183;-80
2022/07/31 09:34:40;;;;;;;4.88;1.15;;;31.30;1.00;;;;;;5084005;28;34239;-78
2022/07/31 09:37:11;;;;;;;1.88;0.90;;;31.30;1.00;;;;;;5038624;28;34324;-80
2022/07/31 09:39:38;;;;;;;4.22;0.80;;;31.30;1.00;;;;;;5126484;27;34300;-77
2022/07/31 09:42:06;;;;;;;2.97;0.82;;;31.30;1.00;;;;;;5134339;27;34138;-80
2022/07/31 09:44:39;;;;;;;1.17;0.73;;;31.30;1.00;;;;;;5037847;28;34170;-82
2022/07/31 09:47:06;;;;;;;2.55;0.80;;;31.40;1.00;;;;;;5113539;27;35515;-79
2022/07/31 09:49:33;;;;;;;5.07;0.95;;;31.60;1.00;;;;;;5130404;27;34322;-78
2022/07/31 09:52:00;;;;;;;1.42;0.93;;;31.70;1.00;;;;;;5101875;27;34222;-79
2022/07/31 09:54:28;;;;;;;1.02;0.80;;;31.70;1.00;;;;;;5041362;28;34095;-79
2022/07/31 09:56:55;;;;;;;0.70;0.70;;;31.60;1.00;;;;;;5128448;27;36066;-79
2022/07/31 09:59:21;;;;;;;1.95;0.77;;;31.80;1.00;;;;;;5111237;27;34122;-76
2022/07/31 10:01:49;;;;;;;1.92;0.85;;;31.90;1.00;;;;;;5094286;27;34300;-79
2022/07/31 10:04:17;;;;;;;2.20;0.95;;;32.00;1.00;;;;;;5108866;27;34470;-79
2022/07/31 10:06:47;;;;;;;1.25;1.02;;;32.20;1.00;;;;;;5109919;27;34226;-79
2022/07/31 10:09:16;;;;;;;1.27;0.75;;;32.20;1.00;;;;;;5110799;27;34383;-77
2022/07/31 10:11:44;;;;;;;1.10;1.00;;;32.30;1.00;;;;;;5094311;27;34647;-80
2022/07/31 10:14:18;;;;;;;0.98;0.90;;;32.40;1.00;;;;;;5117215;27;34236;-83
2022/07/31 10:16:45;;;;;;;0.95;0.82;;;32.60;1.00;;;;;;5094955;27;35452;-81
2022/07/31 10:19:14;;;;;;;2.25;1.20;;;32.50;1.00;;;;;;5112232;27;34169;-80
2022/07/31 10:21:46;;;;;;;0.77;0.77;;;32.40;1.00;;;;;;5082081;28;34107;-77
2022/07/31 10:24:12;;;;;;;2.80;1.00;;;32.50;1.00;;;;;;5088949;27;34442;-78
2022/07/31 10:26:39;;;;;;;1.15;1.02;;;32.40;1.00;;;;;;5116201;27;36384;-77
2022/07/31 10:29:05;;;;;;;1.67;1.10;;;32.40;1.00;;;;;;5041154;28;34436;-80
2022/07/31 10:31:31;;;;;;;1.48;1.00;;;32.30;1.00;;;;;;5145888;27;34154;-76
2022/07/31 10:34:01;;;;;;;0.85;0.77;;;32.50;1.00;;;;;;5111198;27;34026;-76
2022/07/31 10:36:34;;;;;;;2.33;1.20;;;32.30;1.00;;;;;;5094097;27;36474;-78
2022/07/31 10:39:07;;;;;;;0.98;0.90;;;32.10;1.00;;;;;;5110331;27;34543;-77
2022/07/31 10:42:05;;;;;;;4.68;1.17;;;32.20;1.00;;;;;;5143646;27;34186;-76
2022/07/31 10:44:38;;;;;;;1.77;1.10;;;32.30;1.00;;;;;;5140623;27;34210;-77
2022/07/31 10:47:14;;;;;;;1.58;0.90;;;32.50;1.00;;;;;;5123633;27;36712;-75
2022/07/31 10:49:42;;;;;;;1.13;0.65;;;32.70;1.00;;;;;;5107487;27;34215;-78
2022/07/31 10:52:09;;;;;;;1.23;0.82;;;32.60;1.00;;;;;;5121189;27;34358;-78
2022/07/31 10:54:43;;;;;;;1.20;0.80;;;32.60;1.00;;;;;;5107031;27;34135;-78
2022/07/31 10:57:24;;;;;;;0.82;0.82;;;32.70;1.00;;;;;;5124750;27;36548;-80
2022/07/31 10:59:50;;;;;;;2.00;0.90;;;32.80;1.00;;;;;;5072563;28;34298;-80
2022/07/31 11:02:36;;;;;;;1.50;1.08;;;33.00;1.00;;;;;;5075755;28;34207;-79
2022/07/31 11:05:23;;;;;;;2.22;0.90;;;32.50;1.00;;;;;;5067480;27;34414;-78
2022/07/31 11:08:01;;;;;;;1.95;0.90;;;32.70;1.00;;;;;;5044666;28;34257;-76
2022/07/31 11:10:28;;;;;;;0.80;0.80;;;32.80;1.00;;;;;;5027011;27;34631;-76
2022/07/31 11:13:03;;;;;;;1.10;1.10;;;32.80;1.00;;;;;;5111819;27;34428;-77
2022/07/31 11:15:30;;;;;;;1.92;1.10;;;33.10;1.00;;;;;;5112814;27;34034;-79
2022/07/31 11:17:58;;;;;;;1.38;0.93;;;33.10;1.00;;;;;;5094766;27;35527;-79
2022/07/31 11:20:27;;;;;;;3.72;0.80;;;33.00;1.00;;;;;;5130858;27;34210;-77
2022/07/31 11:22:56;;;;;;;2.40;1.00;;;33.10;1.00;;;;;;5119648;27;34079;-78
2022/07/31 11:25:23;;;;;;;0.82;0.82;;;33.10;1.00;;;;;;5100556;27;34377;-79
2022/07/31 11:27:49;;;;;;;0.75;0.75;;;33.10;1.00;;;;;;5131739;27;35691;-76
2022/07/31 11:30:16;;;;;;;1.02;0.90;;;33.20;1.00;;;;;;5109209;27;34391;-76
2022/07/31 11:32:51;;;;;;;1.48;0.90;;;33.20;1.00;;;;;;5023476;28;34256;-78
2022/07/31 11:35:29;;;;;;;2.65;0.98;;;33.40;1.00;;;;;;5119576;27;34218;-79
2022/07/31 11:37:57;;;;;;;6.13;2.35;;;33.40;1.00;;;;;;5131416;27;34133;-76
2022/07/31 11:40:24;;;;;;;1.10;1.00;;;33.40;1.00;;;;;;5048814;28;34061;-79
2022/07/31 11:42:53;;;;;;;0.93;0.93;;;33.40;1.00;;;;;;5139064;27;34614;-78
2022/07/31 11:45:19;;;;;;;1.15;1.00;;;33.30;1.00;;;;;;5159022;27;34259;-77
2022/07/31 11:47:47;;;;;;;0.93;0.82;;;33.20;1.00;;;;;;5142269;27;38881;-79
2022/07/31 11:50:14;;;;;;;2.05;0.90;;;33.30;1.00;;;;;;5117472;27;34046;-78
2022/07/31 11:52:42;;;;;;;0.88;0.88;;;33.20;1.00;;;;;;5134866;27;34438;-77
2022/07/31 11:55:13;;;;;;;2.45;1.00;;;33.20;1.00;;;;;;5135722;27;34429;-78
2022/07/31 11:57:40;;;;;;;1.50;0.80;;;33.20;1.00;;;;;;5129193;27;35887;-77
2022/07/31 12:00:10;;;;;;;1.48;1.02;;;33.10;1.00;;;;;;5089559;28;34119;-75
2022/07/31 12:02:41;;;;;;;1.73;1.00;;;33.20;1.00;;;;;;5108397;27;34158;-77
2022/07/31 12:05:08;;;;;;;2.85;1.00;;;33.30;1.00;;;;;;5144833;27;34216;-76
2022/07/31 12:07:36;;;;;;;1.83;0.80;;;33.30;1.00;;;;;;5105273;27;35734;-75
2022/07/31 12:10:03;;;;;;;0.90;0.90;;;33.40;1.00;;;;;;5119679;27;34351;-77
2022/07/31 12:12:29;;;;;;;1.75;1.20;;;33.20;1.00;;;;;;5124732;27;34184;-78
2022/07/31 12:14:55;;;;;;;4.05;1.35;;;33.20;1.00;;;;;;5118157;27;34288;-78
2022/07/31 12:17:22;;;;;;;1.45;1.35;;;33.20;1.00;;;;;;5105748;27;35258;-76
2022/07/31 12:19:48;;;;;;;2.00;1.00;;;33.40;1.00;;;;;;5126515;27;34252;-78
2022/07/31 12:22:17;;;;;;;1.13;1.02;;;33.40;1.00;;;;;;5112485;27;34284;-78
2022/07/31 12:24:43;;;;;;;1.20;1.10;;;33.60;1.00;;;;;;5121342;27;34488;-76
2022/07/31 12:27:15;;;;;;;0.95;0.90;;;33.70;1.00;;;;;;5113265;27;34573;-79
2022/07/31 12:29:41;;;;;;;2.30;1.00;;;33.70;1.00;;;;;;5109566;27;34193;-77
2022/07/31 12:32:07;;;;;;;3.38;1.20;;;33.60;1.00;;;;;;5157376;27;34189;-76
2022/07/31 12:34:40;;;;;;;1.60;0.80;;;33.60;1.00;;;;;;5125319;27;34090;-76
2022/07/31 12:37:09;;;;;;;1.52;1.10;;;33.60;1.00;;;;;;5105501;27;34336;-77
2022/07/31 12:39:38;;;;;;;0.98;0.98;;;33.60;1.00;;;;;;5105239;27;34380;-77
2022/07/31 12:42:05;;;;;;;1.85;0.90;;;33.50;1.00;;;;;;5063912;27;34429;-78
2022/07/31 12:44:31;;;;;;;0.90;0.90;;;33.50;1.00;;;;;;5099271;27;34261;-78
2022/07/31 12:46:57;;;;;;;1.25;0.95;;;33.50;1.00;;;;;;5041402;28;34950;-78
2022/07/31 12:49:23;;;;;;;0.93;0.90;;;33.60;1.00;;;;;;5044474;28;34275;-75
2022/07/31 12:51:49;;;;;;;1.20;1.10;;;33.70;1.00;;;;;;5104292;27;34412;-76
2022/07/31 12:54:16;;;;;;;0.88;0.88;;;33.80;1.00;;;;;;5119331;27;34252;-76
2022/07/31 12:56:44;;;;;;;1.00;1.00;;;33.80;1.00;;;;;;5121879;27;36462;-76
2022/07/31 12:59:10;;;;;;;1.20;0.90;;;33.80;1.00;;;;;;5110214;27;33695;-76
2022/07/31 13:01:37;;;;;;;1.10;0.90;;;33.70;1.00;;;;;;5124852;27;34082;-78
2022/07/31 13:04:04;;;;;;;1.90;1.00;;;33.70;1.00;;;;;;5115727;27;34192;-76